sensor_id;sensor_type;location;lat;lon;timestamp;pressure;altitude;pressure_sealevel;temperature;humidity
68634;BME280;55625;47.072;22.192;2024-03-23T00:54:08;99513.75;;;6.05;100.00
68634;BME280;55625;47.072;22.192;2024-03-23T00:56:34;99518.91;;;6.10;100.00
68634;BME280;55625;47.072;22.192;2024-03-23T00:59:00;99506.78;;;6.13;100.00
68634;BME280;55625;47.072;22.192;2024-03-23T01:01:26;99502.34;;;6.12;100.00
68634;BME280;55625;47.072;22.192;2024-03-23T01:03:52;99503.22;;;6.09;100.00
68634;BME280;55625;47.072;22.192;2024-03-23T01:06:18;99501.19;;;6.09;100.00
68634;BME280;55625;47.072;22.192;2024-03-23T01:08:44;99501.63;;;6.08;100.00
68634;BME280;55625;47.072;22.192;2024-03-23T01:11:10;99504.00;;;6.09;100.00
68634;BME280;55625;47.072;22.192;2024-03-23T01:13:36;99495.19;;;6.07;100.00
68634;BME280;55625;47.072;22.192;2024-03-23T01:16:02;99500.38;;;6.12;100.00
68634;BME280;55625;47.072;22.192;2024-03-23T01:18:28;99487.44;;;6.15;100.00
68634;BME280;55625;47.072;22.192;2024-03-23T01:20:55;99497.84;;;6.18;100.00
68634;BME280;55625;47.072;22.192;2024-03-23T01:23:21;99490.63;;;6.17;100.00
68634;BME280;55625;47.072;22.192;2024-03-23T01:25:56;99483.84;;;6.14;100.00
68634;BME280;55625;47.072;22.192;2024-03-23T01:28:22;99496.25;;;6.17;100.00
68634;BME280;55625;47.072;22.192;2024-03-23T01:30:49;99482.59;;;6.15;100.00
68634;BME280;55625;47.072;22.192;2024-03-23T01:33:15;99484.25;;;6.13;100.00
68634;BME280;55625;47.072;22.192;2024-03-23T01:35:41;99488.28;;;6.12;100.00
68634;BME280;55625;47.072;22.192;2024-03-23T01:38:07;99485.53;;;6.08;100.00
68634;BME280;55625;47.072;22.192;2024-03-23T01:40:33;99491.94;;;6.09;100.00
68634;BME280;55625;47.072;22.192;2024-03-23T01:43:04;99471.50;;;6.05;100.00
68634;BME280;55625;47.072;22.192;2024-03-23T01:45:31;99481.19;;;6.04;100.00
68634;BME280;55625;47.072;22.192;2024-03-23T01:47:59;99472.38;;;6.02;100.00
68634;BME280;55625;47.072;22.192;2024-03-23T01:50:27;99474.03;;;5.99;100.00
68634;BME280;55625;47.072;22.192;2024-03-23T01:52:53;99475.69;;;5.97;100.00
68634;BME280;55625;47.072;22.192;2024-03-23T01:55:20;99473.34;;;5.91;100.00
68634;BME280;55625;47.072;22.192;2024-03-23T01:57:46;99470.16;;;5.89;100.00
68634;BME280;55625;47.072;22.192;2024-03-23T02:00:13;99475.84;;;5.86;100.00
68634;BME280;55625;47.072;22.192;2024-03-23T02:02:46;99482.72;;;5.81;100.00
68634;BME280;55625;47.072;22.192;2024-03-23T02:05:12;99472.31;;;5.78;100.00
68634;BME280;55625;47.072;22.192;2024-03-23T02:07:42;99476.34;;;5.77;100.00
68634;BME280;55625;47.072;22.192;2024-03-23T02:10:11;99475.13;;;5.78;100.00
68634;BME280;55625;47.072;22.192;2024-03-23T02:12:40;99471.16;;;5.76;100.00
68634;BME280;55625;47.072;22.192;2024-03-23T02:15:07;99480.88;;;5.71;100.00
68634;BME280;55625;47.072;22.192;2024-03-23T02:17:35;99474.47;;;5.71;100.00
68634;BME280;55625;47.072;22.192;2024-03-23T02:20:03;99474.09;;;5.69;100.00
68634;BME280;55625;47.072;22.192;2024-03-23T02:22:38;99477.72;;;5.69;100.00
68634;BME280;55625;47.072;22.192;2024-03-23T02:25:05;99474.91;;;5.69;100.00
68634;BME280;55625;47.072;22.192;2024-03-23T02:27:32;99473.34;;;5.65;100.00
68634;BME280;55625;47.072;22.192;2024-03-23T02:29:59;99469.00;;;5.60;100.00
68634;BME280;55625;47.072;22.192;2024-03-23T02:32:25;99472.69;;;5.57;100.00
68634;BME280;55625;47.072;22.192;2024-03-23T02:34:51;99475.97;;;5.52;100.00
68634;BME280;55625;47.072;22.192;2024-03-23T02:37:17;99472.81;;;5.46;100.00
68634;BME280;55625;47.072;22.192;2024-03-23T02:39:43;99470.13;;;5.39;100.00
68634;BME280;55625;47.072;22.192;2024-03-23T02:42:09;99468.22;;;5.33;100.00
68634;BME280;55625;47.072;22.192;2024-03-23T02:44:35;99467.06;;;5.30;100.00
68634;BME280;55625;47.072;22.192;2024-03-23T02:47:01;99461.47;;;5.26;100.00
68634;BME280;55625;47.072;22.192;2024-03-23T02:49:27;99464.38;;;5.19;100.00
68634;BME280;55625;47.072;22.192;2024-03-23T02:51:53;99460.03;;;5.15;100.00
68634;BME280;55625;47.072;22.192;2024-03-23T02:54:19;99456.91;;;5.09;100.00
68634;BME280;55625;47.072;22.192;2024-03-23T02:56:45;99453.75;;;5.04;100.00
68634;BME280;55625;47.072;22.192;2024-03-23T02:59:11;99453.06;;;4.96;100.00
68634;BME280;55625;47.072;22.192;2024-03-23T03:01:37;99459.56;;;4.89;100.00
68634;BME280;55625;47.072;22.192;2024-03-23T03:04:03;99457.66;;;4.83;100.00
68634;BME280;55625;47.072;22.192;2024-03-23T03:06:31;99451.69;;;4.77;100.00
68634;BME280;55625;47.072;22.192;2024-03-23T03:08:57;99452.22;;;4.68;100.00
68634;BME280;55625;47.072;22.192;2024-03-23T03:11:23;99455.88;;;4.65;100.00
68634;BME280;55625;47.072;22.192;2024-03-23T03:13:50;99448.72;;;4.61;100.00
68634;BME280;55625;47.072;22.192;2024-03-23T03:16:16;99447.94;;;4.57;100.00
68634;BME280;55625;47.072;22.192;2024-03-23T03:18:42;99441.56;;;4.53;100.00
68634;BME280;55625;47.072;22.192;2024-03-23T03:21:08;99442.03;;;4.48;100.00
68634;BME280;55625;47.072;22.192;2024-03-23T03:23:39;99440.91;;;4.42;100.00
68634;BME280;55625;47.072;22.192;2024-03-23T03:26:06;99434.94;;;4.36;100.00
68634;BME280;55625;47.072;22.192;2024-03-23T03:28:33;99446.66;;;4.31;100.00
68634;BME280;55625;47.072;22.192;2024-03-23T03:31:02;99439.00;;;4.31;100.00
68634;BME280;55625;47.072;22.192;2024-03-23T03:33:28;99438.66;;;4.26;100.00
68634;BME280;55625;47.072;22.192;2024-03-23T03:35:55;99437.06;;;4.25;100.00
68634;BME280;55625;47.072;22.192;2024-03-23T03:38:21;99438.28;;;4.24;100.00
68634;BME280;55625;47.072;22.192;2024-03-23T03:40:47;99433.50;;;4.21;100.00
68634;BME280;55625;47.072;22.192;2024-03-23T03:43:13;99433.13;;;4.19;100.00
68634;BME280;55625;47.072;22.192;2024-03-23T03:45:39;99423.94;;;4.15;100.00
68634;BME280;55625;47.072;22.192;2024-03-23T03:48:06;99423.59;;;4.09;100.00
68634;BME280;55625;47.072;22.192;2024-03-23T03:50:32;99421.22;;;4.08;100.00
68634;BME280;55625;47.072;22.192;2024-03-23T03:52:58;99420.47;;;4.03;100.00
68634;BME280;55625;47.072;22.192;2024-03-23T03:55:24;99426.91;;;3.97;100.00
68634;BME280;55625;47.072;22.192;2024-03-23T03:57:50;99422.56;;;3.92;100.00
68634;BME280;55625;47.072;22.192;2024-03-23T04:00:17;99427.78;;;3.90;100.00
68634;BME280;55625;47.072;22.192;2024-03-23T04:02:43;99427.78;;;3.90;100.00
68634;BME280;55625;47.072;22.192;2024-03-23T04:05:09;99427.78;;;3.90;100.00
68634;BME280;55625;47.072;22.192;2024-03-23T04:07:35;99426.94;;;3.93;100.00
68634;BME280;55625;47.072;22.192;2024-03-23T04:10:01;99425.31;;;3.96;100.00
68634;BME280;55625;47.072;22.192;2024-03-23T04:12:27;99429.34;;;3.98;100.00
68634;BME280;55625;47.072;22.192;2024-03-23T04:14:53;99421.72;;;3.99;100.00
68634;BME280;55625;47.072;22.192;2024-03-23T04:17:19;99424.53;;;3.99;100.00
68634;BME280;55625;47.072;22.192;2024-03-23T04:19:45;99424.53;;;3.99;100.00
68634;BME280;55625;47.072;22.192;2024-03-23T04:22:11;99429.34;;;3.98;100.00
68634;BME280;55625;47.072;22.192;2024-03-23T04:24:37;99426.13;;;3.96;100.00
68634;BME280;55625;47.072;22.192;2024-03-23T04:27:03;99438.16;;;3.97;100.00
68634;BME280;55625;47.072;22.192;2024-03-23T04:29:29;99432.16;;;3.95;100.00
68634;BME280;55625;47.072;22.192;2024-03-23T04:31:55;99425.31;;;3.96;100.00
68634;BME280;55625;47.072;22.192;2024-03-23T04:34:22;99424.53;;;3.95;100.00
68634;BME280;55625;47.072;22.192;2024-03-23T04:36:49;99423.72;;;3.95;100.00
68634;BME280;55625;47.072;22.192;2024-03-23T04:39:15;99428.13;;;3.96;100.00
68634;BME280;55625;47.072;22.192;2024-03-23T04:41:41;99424.09;;;4.00;100.00
68634;BME280;55625;47.072;22.192;2024-03-23T04:44:07;99422.44;;;4.07;100.00
68634;BME280;55625;47.072;22.192;2024-03-23T04:46:33;99423.56;;;4.13;100.00
68634;BME280;55625;47.072;22.192;2024-03-23T04:48:59;99416.25;;;4.19;100.00
68634;BME280;55625;47.072;22.192;2024-03-23T04:51:25;99425.81;;;4.25;100.00
68634;BME280;55625;47.072;22.192;2024-03-23T04:53:52;99421.75;;;4.33;100.00
68634;BME280;55625;47.072;22.192;2024-03-23T04:56:18;99421.69;;;4.36;100.00
68634;BME280;55625;47.072;22.192;2024-03-23T04:58:44;99416.81;;;4.41;100.00
68634;BME280;55625;47.072;22.192;2024-03-23T05:01:14;99428.03;;;4.44;100.00
68634;BME280;55625;47.072;22.192;2024-03-23T05:03:40;99420.72;;;4.50;100.00
68634;BME280;55625;47.072;22.192;2024-03-23T05:06:06;99430.66;;;4.58;100.00
68634;BME280;55625;47.072;22.192;2024-03-23T05:08:32;99423.28;;;4.72;100.00
68634;BME280;55625;47.072;22.192;2024-03-23T05:10:58;99417.44;;;4.86;100.00
68634;BME280;55625;47.072;22.192;2024-03-23T05:13:24;99421.66;;;5.01;100.00
68634;BME280;55625;47.072;22.192;2024-03-23T05:15:56;99421.88;;;5.14;100.00
68634;BME280;55625;47.072;22.192;2024-03-23T05:18:22;99423.69;;;5.27;100.00
68634;BME280;55625;47.072;22.192;2024-03-23T05:20:48;99426.69;;;5.40;100.00
68634;BME280;55625;47.072;22.192;2024-03-23T05:23:14;99425.78;;;5.47;100.00
68634;BME280;55625;47.072;22.192;2024-03-23T05:25:41;99426.47;;;5.54;100.00
68634;BME280;55625;47.072;22.192;2024-03-23T05:28:07;99426.25;;;5.69;100.00
68634;BME280;55625;47.072;22.192;2024-03-23T05:30:33;99424.81;;;5.80;100.00
68634;BME280;55625;47.072;22.192;2024-03-23T05:32:59;99418.91;;;5.98;100.00
68634;BME280;55625;47.072;22.192;2024-03-23T05:35:25;99424.59;;;6.18;100.00
68634;BME280;55625;47.072;22.192;2024-03-23T05:37:51;99422.66;;;6.35;100.00
68634;BME280;55625;47.072;22.192;2024-03-23T05:40:17;99416.75;;;6.49;100.00
68634;BME280;55625;47.072;22.192;2024-03-23T05:42:44;99422.88;;;6.64;100.00
68634;BME280;55625;47.072;22.192;2024-03-23T05:45:10;99421.72;;;6.81;100.00
68634;BME280;55625;47.072;22.192;2024-03-23T05:47:37;99418.06;;;7.00;100.00
68634;BME280;55625;47.072;22.192;2024-03-23T05:50:03;99420.41;;;7.22;100.00
68634;BME280;55625;47.072;22.192;2024-03-23T05:52:29;99421.16;;;7.42;100.00
68634;BME280;55625;47.072;22.192;2024-03-23T05:54:55;99414.25;;;7.59;100.00
68634;BME280;55625;47.072;22.192;2024-03-23T05:57:21;99417.34;;;7.81;100.00
68634;BME280;55625;47.072;22.192;2024-03-23T05:59:47;99422.09;;;8.00;100.00
68634;BME280;55625;47.072;22.192;2024-03-23T06:02:13;99422.97;;;8.14;100.00
68634;BME280;55625;47.072;22.192;2024-03-23T06:04:40;99418.06;;;8.30;99.76
68634;BME280;55625;47.072;22.192;2024-03-23T06:07:06;99426.88;;;8.49;97.58
68634;BME280;55625;47.072;22.192;2024-03-23T06:09:32;99416.31;;;8.65;97.03
68634;BME280;55625;47.072;22.192;2024-03-23T06:11:59;99420.44;;;8.90;96.21
68634;BME280;55625;47.072;22.192;2024-03-23T06:14:25;99421.13;;;9.07;94.89
68634;BME280;55625;47.072;22.192;2024-03-23T06:16:51;99412.00;;;9.28;96.20
68634;BME280;55625;47.072;22.192;2024-03-23T06:19:17;99419.81;;;9.49;95.62
68634;BME280;55625;47.072;22.192;2024-03-23T06:21:46;99414.81;;;9.66;93.23
68634;BME280;55625;47.072;22.192;2024-03-23T06:24:12;99416.28;;;9.83;93.20
68634;BME280;55625;47.072;22.192;2024-03-23T06:26:38;99414.84;;;10.13;93.08
68634;BME280;55625;47.072;22.192;2024-03-23T06:29:04;99420.44;;;10.39;91.77
68634;BME280;55625;47.072;22.192;2024-03-23T06:31:31;99412.41;;;10.59;90.89
68634;BME280;55625;47.072;22.192;2024-03-23T06:33:57;99416.22;;;10.87;89.47
68634;BME280;55625;47.072;22.192;2024-03-23T06:36:23;99414.16;;;11.09;87.51
68634;BME280;55625;47.072;22.192;2024-03-23T06:38:49;99412.84;;;11.32;84.47
68634;BME280;55625;47.072;22.192;2024-03-23T06:41:15;99409.47;;;11.56;82.87
68634;BME280;55625;47.072;22.192;2024-03-23T06:43:41;99408.94;;;11.79;78.97
68634;BME280;55625;47.072;22.192;2024-03-23T06:46:07;99412.00;;;12.03;80.18
68634;BME280;55625;47.072;22.192;2024-03-23T06:48:33;99415.84;;;12.27;78.12
68634;BME280;55625;47.072;22.192;2024-03-23T06:50:59;99402.72;;;12.48;78.20
68634;BME280;55625;47.072;22.192;2024-03-23T06:53:25;99396.53;;;12.68;78.62
68634;BME280;55625;47.072;22.192;2024-03-23T06:55:53;99398.91;;;12.88;75.36
68634;BME280;55625;47.072;22.192;2024-03-23T06:58:24;99414.31;;;13.14;74.81
68634;BME280;55625;47.072;22.192;2024-03-23T07:00:50;99396.19;;;13.45;74.98
68634;BME280;55625;47.072;22.192;2024-03-23T07:03:20;99402.25;;;13.71;74.16
68634;BME280;55625;47.072;22.192;2024-03-23T07:05:47;99394.88;;;13.88;68.71
68634;BME280;55625;47.072;22.192;2024-03-23T07:08:13;99398.75;;;13.99;69.39
68634;BME280;55625;47.072;22.192;2024-03-23T07:10:44;99389.91;;;14.21;69.28
68634;BME280;55625;47.072;22.192;2024-03-23T07:13:10;99389.44;;;14.38;69.07
68634;BME280;55625;47.072;22.192;2024-03-23T07:15:36;99392.63;;;14.40;68.07
68634;BME280;55625;47.072;22.192;2024-03-23T07:18:02;99390.13;;;14.56;68.12
68634;BME280;55625;47.072;22.192;2024-03-23T07:20:28;99387.72;;;14.79;67.64
68634;BME280;55625;47.072;22.192;2024-03-23T07:22:56;99385.72;;;14.85;65.84
68634;BME280;55625;47.072;22.192;2024-03-23T07:25:22;99387.50;;;14.97;64.88
68634;BME280;55625;47.072;22.192;2024-03-23T07:27:49;99381.00;;;15.11;66.11
68634;BME280;55625;47.072;22.192;2024-03-23T07:30:15;99377.84;;;15.24;66.18
68634;BME280;55625;47.072;22.192;2024-03-23T07:32:44;99366.41;;;15.39;66.91
68634;BME280;55625;47.072;22.192;2024-03-23T07:35:10;99370.28;;;15.56;64.79
68634;BME280;55625;47.072;22.192;2024-03-23T07:37:36;99362.16;;;15.34;65.07
68634;BME280;55625;47.072;22.192;2024-03-23T07:40:02;99369.09;;;15.13;66.80
68634;BME280;55625;47.072;22.192;2024-03-23T07:42:29;99368.59;;;15.14;66.16
68634;BME280;55625;47.072;22.192;2024-03-23T07:44:55;99363.03;;;15.26;64.71
68634;BME280;55625;47.072;22.192;2024-03-23T07:47:22;99356.13;;;15.47;64.47
68634;BME280;55625;47.072;22.192;2024-03-23T07:49:48;99351.56;;;15.70;64.39
68634;BME280;55625;47.072;22.192;2024-03-23T07:52:14;99355.66;;;15.83;63.22
68634;BME280;55625;47.072;22.192;2024-03-23T07:54:40;99350.50;;;16.08;61.29
68634;BME280;55625;47.072;22.192;2024-03-23T07:57:07;99351.81;;;16.07;62.48
68634;BME280;55625;47.072;22.192;2024-03-23T07:59:33;99346.94;;;16.33;62.66
68634;BME280;55625;47.072;22.192;2024-03-23T08:02:00;99355.78;;;16.56;61.08
68634;BME280;55625;47.072;22.192;2024-03-23T08:04:27;99345.31;;;16.53;59.72
68634;BME280;55625;47.072;22.192;2024-03-23T08:06:54;99347.66;;;16.74;58.72
68634;BME280;55625;47.072;22.192;2024-03-23T08:09:19;99330.91;;;16.93;60.01
68634;BME280;55625;47.072;22.192;2024-03-23T08:11:45;99336.19;;;17.00;57.60
68634;BME280;55625;47.072;22.192;2024-03-23T08:14:12;99334.09;;;17.01;60.77
68634;BME280;55625;47.072;22.192;2024-03-23T08:16:38;99334.56;;;16.94;59.57
68634;BME280;55625;47.072;22.192;2024-03-23T08:19:04;99327.56;;;16.69;59.53
68634;BME280;55625;47.072;22.192;2024-03-23T08:21:31;99324.00;;;16.54;60.95
68634;BME280;55625;47.072;22.192;2024-03-23T08:23:58;99324.41;;;16.67;59.81
68634;BME280;55625;47.072;22.192;2024-03-23T08:26:24;99323.25;;;16.59;59.93
68634;BME280;55625;47.072;22.192;2024-03-23T08:28:50;99325.69;;;16.92;59.83
68634;BME280;55625;47.072;22.192;2024-03-23T08:31:16;99331.47;;;17.29;58.76
68634;BME280;55625;47.072;22.192;2024-03-23T08:33:42;99326.16;;;17.48;58.75
68634;BME280;55625;47.072;22.192;2024-03-23T08:36:10;99336.75;;;17.04;56.74
68634;BME280;55625;47.072;22.192;2024-03-23T08:38:40;99332.50;;;16.94;57.42
68634;BME280;55625;47.072;22.192;2024-03-23T08:41:10;99328.84;;;16.48;57.29
68634;BME280;55625;47.072;22.192;2024-03-23T08:43:40;99319.44;;;16.21;60.08
68634;BME280;55625;47.072;22.192;2024-03-23T08:46:10;99310.31;;;16.43;60.33
68634;BME280;55625;47.072;22.192;2024-03-23T08:48:40;99303.56;;;16.92;60.21
68634;BME280;55625;47.072;22.192;2024-03-23T08:51:08;99299.94;;;17.29;57.40
68634;BME280;55625;47.072;22.192;2024-03-23T08:53:38;99297.16;;;17.77;57.05
68634;BME280;55625;47.072;22.192;2024-03-23T08:56:06;99295.47;;;18.08;55.91
68634;BME280;55625;47.072;22.192;2024-03-23T08:58:34;99290.56;;;17.71;55.44
68634;BME280;55625;47.072;22.192;2024-03-23T09:01:18;99282.78;;;17.77;55.48
68634;BME280;55625;47.072;22.192;2024-03-23T09:03:44;99278.88;;;17.80;55.65
68634;BME280;55625;47.072;22.192;2024-03-23T09:06:14;99273.75;;;18.01;55.52
68634;BME280;55625;47.072;22.192;2024-03-23T09:08:40;99265.19;;;18.12;54.53
68634;BME280;55625;47.072;22.192;2024-03-23T09:11:12;99268.88;;;18.24;53.30
68634;BME280;55625;47.072;22.192;2024-03-23T09:13:39;99260.84;;;18.56;53.25
68634;BME280;55625;47.072;22.192;2024-03-23T09:16:06;99258.47;;;18.43;52.77
68634;BME280;55625;47.072;22.192;2024-03-23T09:18:34;99250.16;;;18.62;54.22
68634;BME280;55625;47.072;22.192;2024-03-23T09:21:04;99250.97;;;18.90;52.17
68634;BME280;55625;47.072;22.192;2024-03-23T09:23:36;99253.31;;;18.86;53.22
68634;BME280;55625;47.072;22.192;2024-03-23T09:26:05;99241.25;;;18.60;52.61
68634;BME280;55625;47.072;22.192;2024-03-23T09:28:33;99240.25;;;18.80;52.52
68634;BME280;55625;47.072;22.192;2024-03-23T09:31:07;99235.81;;;18.84;51.20
68634;BME280;55625;47.072;22.192;2024-03-23T09:33:35;99237.63;;;18.93;52.61
68634;BME280;55625;47.072;22.192;2024-03-23T09:36:05;99227.94;;;18.90;51.67
68634;BME280;55625;47.072;22.192;2024-03-23T09:38:32;99222.97;;;18.97;52.11
68634;BME280;55625;47.072;22.192;2024-03-23T09:40:58;99222.97;;;19.13;51.29
68634;BME280;55625;47.072;22.192;2024-03-23T09:43:27;99225.28;;;19.26;50.97
68634;BME280;55625;47.072;22.192;2024-03-23T09:45:53;99217.94;;;19.42;51.37
68634;BME280;55625;47.072;22.192;2024-03-23T09:48:19;99213.22;;;19.61;50.60
68634;BME280;55625;47.072;22.192;2024-03-23T09:50:46;99204.28;;;19.59;50.29
68634;BME280;55625;47.072;22.192;2024-03-23T09:53:15;99201.16;;;19.63;50.57
68634;BME280;55625;47.072;22.192;2024-03-23T09:55:43;99197.47;;;19.68;49.52
68634;BME280;55625;47.072;22.192;2024-03-23T09:58:16;99195.91;;;19.67;49.67
68634;BME280;55625;47.072;22.192;2024-03-23T10:00:43;99196.09;;;19.80;49.97
68634;BME280;55625;47.072;22.192;2024-03-23T10:03:09;99198.50;;;19.76;49.24
68634;BME280;55625;47.072;22.192;2024-03-23T10:05:37;99185.97;;;19.68;49.30
68634;BME280;55625;47.072;22.192;2024-03-23T10:08:21;99195.28;;;19.85;50.14
68634;BME280;55625;47.072;22.192;2024-03-23T10:10:47;99188.47;;;19.88;48.70
68634;BME280;55625;47.072;22.192;2024-03-23T10:13:27;99189.13;;;19.64;49.50
68634;BME280;55625;47.072;22.192;2024-03-23T10:15:59;99175.94;;;19.80;50.88
68634;BME280;55625;47.072;22.192;2024-03-23T10:18:26;99170.66;;;19.90;49.11
68634;BME280;55625;47.072;22.192;2024-03-23T10:21:07;99164.88;;;19.95;49.12
68634;BME280;55625;47.072;22.192;2024-03-23T10:23:41;99160.47;;;19.83;48.75
68634;BME280;55625;47.072;22.192;2024-03-23T10:26:21;99173.78;;;19.97;47.86
68634;BME280;55625;47.072;22.192;2024-03-23T10:28:58;99162.75;;;20.01;48.19
68634;BME280;55625;47.072;22.192;2024-03-23T10:31:30;99159.13;;;19.95;48.13
68634;BME280;55625;47.072;22.192;2024-03-23T10:33:57;99160.91;;;20.04;48.72
68634;BME280;55625;47.072;22.192;2024-03-23T10:36:24;99152.84;;;19.97;47.87
68634;BME280;55625;47.072;22.192;2024-03-23T10:38:52;99142.97;;;19.81;49.38
68634;BME280;55625;47.072;22.192;2024-03-23T10:41:18;99145.78;;;19.92;49.29
68634;BME280;55625;47.072;22.192;2024-03-23T10:43:48;99155.69;;;20.02;48.66
68634;BME280;55625;47.072;22.192;2024-03-23T10:46:16;99139.13;;;20.08;48.65
68634;BME280;55625;47.072;22.192;2024-03-23T10:48:43;99154.84;;;20.07;48.38
68634;BME280;55625;47.072;22.192;2024-03-23T10:51:10;99140.03;;;19.92;45.87
68634;BME280;55625;47.072;22.192;2024-03-23T10:53:37;99133.50;;;19.86;46.65
68634;BME280;55625;47.072;22.192;2024-03-23T10:56:04;99132.88;;;20.04;46.63
68634;BME280;55625;47.072;22.192;2024-03-23T10:58:46;99124.13;;;20.21;47.07
68634;BME280;55625;47.072;22.192;2024-03-23T11:01:14;99123.50;;;19.98;46.87
68634;BME280;55625;47.072;22.192;2024-03-23T11:03:45;99108.47;;;20.11;46.40
68634;BME280;55625;47.072;22.192;2024-03-23T11:06:38;99112.66;;;20.10;46.73
68634;BME280;55625;47.072;22.192;2024-03-23T11:09:45;99114.97;;;20.17;45.64
68634;BME280;55625;47.072;22.192;2024-03-23T11:14:51;99098.25;;;20.45;45.47
68634;BME280;55625;47.072;22.192;2024-03-23T11:17:25;99091.84;;;20.28;43.70
68634;BME280;55625;47.072;22.192;2024-03-23T11:22:41;99088.47;;;20.24;46.13
68634;BME280;55625;47.072;22.192;2024-03-23T11:25:28;99068.13;;;20.11;44.57
68634;BME280;55625;47.072;22.192;2024-03-23T11:28:10;99077.53;;;19.76;45.71
68634;BME280;55625;47.072;22.192;2024-03-23T11:30:37;99075.03;;;19.56;45.78
68634;BME280;55625;47.072;22.192;2024-03-23T11:33:06;99061.00;;;19.35;46.62
68634;BME280;55625;47.072;22.192;2024-03-23T11:35:37;99055.59;;;19.73;45.97
68634;BME280;55625;47.072;22.192;2024-03-23T11:38:12;99067.38;;;19.69;45.75
68634;BME280;55625;47.072;22.192;2024-03-23T11:40:43;99061.59;;;19.17;47.38
68634;BME280;55625;47.072;22.192;2024-03-23T11:43:16;99046.31;;;19.44;46.38
68634;BME280;55625;47.072;22.192;2024-03-23T11:45:47;99047.09;;;19.45;45.76
68634;BME280;55625;47.072;22.192;2024-03-23T11:48:15;99040.69;;;19.16;44.89
68634;BME280;55625;47.072;22.192;2024-03-23T11:50:46;99049.94;;;18.98;45.19
68634;BME280;55625;47.072;22.192;2024-03-23T11:53:23;99031.88;;;19.03;45.48
68634;BME280;55625;47.072;22.192;2024-03-23T11:58:19;99029.50;;;19.02;44.05
68634;BME280;55625;47.072;22.192;2024-03-23T12:00:55;99017.69;;;19.11;43.47
68634;BME280;55625;47.072;22.192;2024-03-23T12:03:21;99001.13;;;19.34;43.54
68634;BME280;55625;47.072;22.192;2024-03-23T12:05:52;99002.59;;;19.87;44.96
68634;BME280;55625;47.072;22.192;2024-03-23T12:08:30;98994.47;;;19.85;44.19
68634;BME280;55625;47.072;22.192;2024-03-23T12:13:33;98997.66;;;19.82;41.43
68634;BME280;55625;47.072;22.192;2024-03-23T12:16:19;98981.50;;;20.03;44.07
68634;BME280;55625;47.072;22.192;2024-03-23T12:18:49;98976.44;;;20.15;42.57
68634;BME280;55625;47.072;22.192;2024-03-23T12:21:15;98973.06;;;19.81;42.55
68634;BME280;55625;47.072;22.192;2024-03-23T12:23:43;98964.75;;;19.36;42.48
68634;BME280;55625;47.072;22.192;2024-03-23T12:26:12;98960.22;;;19.46;42.86
68634;BME280;55625;47.072;22.192;2024-03-23T12:28:39;98962.59;;;19.42;42.44
68634;BME280;55625;47.072;22.192;2024-03-23T12:31:05;98948.75;;;19.41;42.34
68634;BME280;55625;47.072;22.192;2024-03-23T12:33:31;98957.28;;;19.58;42.01
68634;BME280;55625;47.072;22.192;2024-03-23T12:35:57;98945.97;;;19.65;42.68
68634;BME280;55625;47.072;22.192;2024-03-23T12:38:23;98935.53;;;19.62;42.95
68634;BME280;55625;47.072;22.192;2024-03-23T12:40:50;98934.94;;;19.69;43.90
68634;BME280;55625;47.072;22.192;2024-03-23T12:43:17;98940.78;;;19.52;42.86
68634;BME280;55625;47.072;22.192;2024-03-23T12:45:49;98930.25;;;19.96;43.19
68634;BME280;55625;47.072;22.192;2024-03-23T12:48:16;98929.78;;;19.92;42.89
68634;BME280;55625;47.072;22.192;2024-03-23T12:50:42;98919.88;;;19.52;41.99
68634;BME280;55625;47.072;22.192;2024-03-23T12:53:08;98920.84;;;19.30;43.44
68634;BME280;55625;47.072;22.192;2024-03-23T12:55:37;98921.22;;;19.10;43.50
68634;BME280;55625;47.072;22.192;2024-03-23T12:58:04;98919.56;;;19.20;44.08
68634;BME280;55625;47.072;22.192;2024-03-23T13:00:30;98909.63;;;19.21;43.17
68634;BME280;55625;47.072;22.192;2024-03-23T13:02:56;98908.31;;;19.22;43.72
68634;BME280;55625;47.072;22.192;2024-03-23T13:05:22;98905.75;;;19.54;44.33
68634;BME280;55625;47.072;22.192;2024-03-23T13:07:48;98906.94;;;19.34;43.45
68634;BME280;55625;47.072;22.192;2024-03-23T13:10:14;98899.13;;;19.29;43.19
68634;BME280;55625;47.072;22.192;2024-03-23T13:12:41;98888.16;;;19.63;42.36
68634;BME280;55625;47.072;22.192;2024-03-23T13:15:08;98886.88;;;19.59;43.66
68634;BME280;55625;47.072;22.192;2024-03-23T13:17:34;98880.06;;;19.62;42.53
68634;BME280;55625;47.072;22.192;2024-03-23T13:20:00;98891.00;;;19.28;41.15
68634;BME280;55625;47.072;22.192;2024-03-23T13:22:26;98884.47;;;19.27;41.99
68634;BME280;55625;47.072;22.192;2024-03-23T13:24:52;98877.91;;;19.32;41.80
68634;BME280;55625;47.072;22.192;2024-03-23T13:27:18;98871.66;;;19.64;41.04
68634;BME280;55625;47.072;22.192;2024-03-23T13:29:45;98867.25;;;19.57;41.89
68634;BME280;55625;47.072;22.192;2024-03-23T13:32:12;98873.69;;;19.39;41.61
68634;BME280;55625;47.072;22.192;2024-03-23T13:34:39;98863.72;;;19.40;43.01
68634;BME280;55625;47.072;22.192;2024-03-23T13:37:05;98861.88;;;19.42;41.28
68634;BME280;55625;47.072;22.192;2024-03-23T13:39:33;98870.66;;;19.56;41.13
68634;BME280;55625;47.072;22.192;2024-03-23T13:41:59;98856.34;;;19.44;41.39
68634;BME280;55625;47.072;22.192;2024-03-23T13:44:25;98860.56;;;19.43;40.87
68634;BME280;55625;47.072;22.192;2024-03-23T13:46:51;98850.72;;;19.33;41.14
68634;BME280;55625;47.072;22.192;2024-03-23T13:49:31;98844.59;;;19.42;41.16
68634;BME280;55625;47.072;22.192;2024-03-23T13:52:00;98853.09;;;19.29;40.46
68634;BME280;55625;47.072;22.192;2024-03-23T13:54:27;98848.38;;;18.90;41.50
68634;BME280;55625;47.072;22.192;2024-03-23T13:56:55;98850.13;;;18.58;41.65